sensor_id;sensor_type;location;lat;lon;timestamp;P1;durP1;ratioP1;P2;durP2;ratioP2
69769;SDS011;57282;52.514;13.458;2022-10-14T00:01:11;32.67;;;18.67;;
69769;SDS011;57282;52.514;13.458;2022-10-14T00:03:40;31.77;;;17.67;;
69769;SDS011;57282;52.514;13.458;2022-10-14T00:06:08;32.35;;;18.42;;
69769;SDS011;57282;52.514;13.458;2022-10-14T00:08:37;36.90;;;18.20;;
69769;SDS011;57282;52.514;13.458;2022-10-14T00:11:04;32.40;;;18.83;;
69769;SDS011;57282;52.514;13.458;2022-10-14T00:13:33;34.90;;;18.30;;
69769;SDS011;57282;52.514;13.458;2022-10-14T00:16:00;33.38;;;18.02;;
69769;SDS011;57282;52.514;13.458;2022-10-14T00:18:29;33.33;;;17.27;;
69769;SDS011;57282;52.514;13.458;2022-10-14T00:20:58;30.63;;;18.27;;
69769;SDS011;57282;52.514;13.458;2022-10-14T00:23:26;38.15;;;17.70;;
69769;SDS011;57282;52.514;13.458;2022-10-14T00:25:53;33.95;;;17.63;;
69769;SDS011;57282;52.514;13.458;2022-10-14T00:28:20;33.75;;;18.70;;
69769;SDS011;57282;52.514;13.458;2022-10-14T00:30:53;32.70;;;17.50;;
69769;SDS011;57282;52.514;13.458;2022-10-14T00:33:25;31.17;;;17.70;;
69769;SDS011;57282;52.514;13.458;2022-10-14T00:35:58;32.42;;;17.90;;
69769;SDS011;57282;52.514;13.458;2022-10-14T00:38:28;31.83;;;16.20;;
69769;SDS011;57282;52.514;13.458;2022-10-14T00:40:56;34.25;;;17.10;;
69769;SDS011;57282;52.514;13.458;2022-10-14T00:43:23;31.05;;;17.27;;
69769;SDS011;57282;52.514;13.458;2022-10-14T00:45:52;37.57;;;17.60;;
69769;SDS011;57282;52.514;13.458;2022-10-14T00:48:20;32.85;;;17.00;;
69769;SDS011;57282;52.514;13.458;2022-10-14T00:50:52;32.65;;;16.40;;
69769;SDS011;57282;52.514;13.458;2022-10-14T00:53:23;35.75;;;19.23;;
69769;SDS011;57282;52.514;13.458;2022-10-14T00:55:50;34.80;;;18.05;;
69769;SDS011;57282;52.514;13.458;2022-10-14T00:58:17;30.53;;;16.90;;
69769;SDS011;57282;52.514;13.458;2022-10-14T01:00:43;36.78;;;19.42;;
69769;SDS011;57282;52.514;13.458;2022-10-14T01:03:16;32.17;;;16.90;;
69769;SDS011;57282;52.514;13.458;2022-10-14T01:05:48;32.47;;;17.30;;
69769;SDS011;57282;52.514;13.458;2022-10-14T01:08:29;31.17;;;16.58;;
69769;SDS011;57282;52.514;13.458;2022-10-14T01:11:06;30.30;;;16.33;;
69769;SDS011;57282;52.514;13.458;2022-10-14T01:13:40;30.95;;;16.42;;
69769;SDS011;57282;52.514;13.458;2022-10-14T01:16:17;29.67;;;15.57;;
69769;SDS011;57282;52.514;13.458;2022-10-14T01:18:57;26.83;;;15.32;;
69769;SDS011;57282;52.514;13.458;2022-10-14T01:21:41;28.85;;;16.02;;
69769;SDS011;57282;52.514;13.458;2022-10-14T01:27:15;32.30;;;16.48;;
69769;SDS011;57282;52.514;13.458;2022-10-14T01:30:07;35.90;;;16.90;;
69769;SDS011;57282;52.514;13.458;2022-10-14T01:35:40;26.20;;;13.93;;
69769;SDS011;57282;52.514;13.458;2022-10-14T01:38:18;25.90;;;16.13;;
69769;SDS011;57282;52.514;13.458;2022-10-14T01:40:53;30.40;;;16.25;;
69769;SDS011;57282;52.514;13.458;2022-10-14T01:43:27;26.13;;;14.60;;
69769;SDS011;57282;52.514;13.458;2022-10-14T01:45:59;30.55;;;15.43;;
69769;SDS011;57282;52.514;13.458;2022-10-14T01:48:32;30.27;;;14.55;;
69769;SDS011;57282;52.514;13.458;2022-10-14T01:51:03;30.97;;;15.93;;
69769;SDS011;57282;52.514;13.458;2022-10-14T01:53:38;32.15;;;16.45;;
69769;SDS011;57282;52.514;13.458;2022-10-14T01:56:10;31.98;;;16.10;;
69769;SDS011;57282;52.514;13.458;2022-10-14T01:58:40;27.75;;;16.02;;
69769;SDS011;57282;52.514;13.458;2022-10-14T02:01:11;34.22;;;16.60;;
69769;SDS011;57282;52.514;13.458;2022-10-14T02:03:40;33.23;;;15.07;;
69769;SDS011;57282;52.514;13.458;2022-10-14T02:06:10;30.17;;;14.93;;
69769;SDS011;57282;52.514;13.458;2022-10-14T02:08:47;24.33;;;14.02;;
69769;SDS011;57282;52.514;13.458;2022-10-14T02:11:26;27.00;;;13.90;;
69769;SDS011;57282;52.514;13.458;2022-10-14T02:14:09;28.55;;;15.10;;
69769;SDS011;57282;52.514;13.458;2022-10-14T02:16:50;28.73;;;14.27;;
69769;SDS011;57282;52.514;13.458;2022-10-14T02:19:28;26.17;;;15.98;;
69769;SDS011;57282;52.514;13.458;2022-10-14T02:22:04;27.77;;;14.65;;
69769;SDS011;57282;52.514;13.458;2022-10-14T02:24:40;28.73;;;15.07;;
69769;SDS011;57282;52.514;13.458;2022-10-14T02:27:12;28.90;;;15.48;;
69769;SDS011;57282;52.514;13.458;2022-10-14T02:29:43;26.03;;;14.23;;
69769;SDS011;57282;52.514;13.458;2022-10-14T02:32:15;28.65;;;14.90;;
69769;SDS011;57282;52.514;13.458;2022-10-14T02:34:46;29.25;;;15.35;;
69769;SDS011;57282;52.514;13.458;2022-10-14T02:37:17;31.60;;;15.43;;
69769;SDS011;57282;52.514;13.458;2022-10-14T02:39:48;28.55;;;15.20;;
69769;SDS011;57282;52.514;13.458;2022-10-14T02:42:23;30.37;;;15.03;;
69769;SDS011;57282;52.514;13.458;2022-10-14T02:44:50;28.25;;;14.80;;
69769;SDS011;57282;52.514;13.458;2022-10-14T02:47:20;26.15;;;13.60;;
69769;SDS011;57282;52.514;13.458;2022-10-14T02:49:49;26.63;;;13.98;;
69769;SDS011;57282;52.514;13.458;2022-10-14T02:52:15;29.42;;;14.57;;
69769;SDS011;57282;52.514;13.458;2022-10-14T02:54:42;27.67;;;14.13;;
69769;SDS011;57282;52.514;13.458;2022-10-14T02:57:09;26.13;;;14.07;;
69769;SDS011;57282;52.514;13.458;2022-10-14T02:59:36;27.85;;;14.63;;
69769;SDS011;57282;52.514;13.458;2022-10-14T03:02:04;22.75;;;13.25;;
69769;SDS011;57282;52.514;13.458;2022-10-14T03:04:32;25.92;;;13.98;;
69769;SDS011;57282;52.514;13.458;2022-10-14T03:07:00;25.03;;;13.03;;
69769;SDS011;57282;52.514;13.458;2022-10-14T03:09:27;27.00;;;13.15;;
69769;SDS011;57282;52.514;13.458;2022-10-14T03:12:06;26.48;;;13.20;;
69769;SDS011;57282;52.514;13.458;2022-10-14T03:14:32;29.13;;;13.40;;
69769;SDS011;57282;52.514;13.458;2022-10-14T03:16:59;28.77;;;13.52;;
69769;SDS011;57282;52.514;13.458;2022-10-14T03:19:26;24.77;;;13.13;;
69769;SDS011;57282;52.514;13.458;2022-10-14T03:21:53;26.05;;;12.93;;
69769;SDS011;57282;52.514;13.458;2022-10-14T03:24:21;25.33;;;12.80;;
69769;SDS011;57282;52.514;13.458;2022-10-14T03:26:47;26.33;;;12.38;;
69769;SDS011;57282;52.514;13.458;2022-10-14T03:29:14;21.77;;;12.55;;
69769;SDS011;57282;52.514;13.458;2022-10-14T03:31:41;24.63;;;13.20;;
69769;SDS011;57282;52.514;13.458;2022-10-14T03:34:07;23.33;;;12.43;;
69769;SDS011;57282;52.514;13.458;2022-10-14T03:36:35;23.20;;;12.20;;
69769;SDS011;57282;52.514;13.458;2022-10-14T03:39:03;26.55;;;13.10;;
69769;SDS011;57282;52.514;13.458;2022-10-14T03:41:30;29.13;;;13.55;;
69769;SDS011;57282;52.514;13.458;2022-10-14T03:43:58;26.40;;;12.87;;
69769;SDS011;57282;52.514;13.458;2022-10-14T03:46:24;23.75;;;13.27;;
69769;SDS011;57282;52.514;13.458;2022-10-14T03:48:51;23.95;;;12.45;;
69769;SDS011;57282;52.514;13.458;2022-10-14T03:51:18;27.08;;;12.82;;
69769;SDS011;57282;52.514;13.458;2022-10-14T03:53:45;23.83;;;13.55;;
69769;SDS011;57282;52.514;13.458;2022-10-14T03:56:13;26.47;;;13.80;;
69769;SDS011;57282;52.514;13.458;2022-10-14T03:58:40;29.65;;;13.75;;
69769;SDS011;57282;52.514;13.458;2022-10-14T04:01:07;26.33;;;12.95;;
69769;SDS011;57282;52.514;13.458;2022-10-14T04:03:34;25.63;;;13.93;;
69769;SDS011;57282;52.514;13.458;2022-10-14T04:06:00;27.65;;;13.65;;
69769;SDS011;57282;52.514;13.458;2022-10-14T04:08:27;24.00;;;13.33;;
69769;SDS011;57282;52.514;13.458;2022-10-14T04:10:54;30.17;;;13.32;;
69769;SDS011;57282;52.514;13.458;2022-10-14T04:13:22;23.85;;;11.77;;
69769;SDS011;57282;52.514;13.458;2022-10-14T04:15:49;29.80;;;13.70;;
69769;SDS011;57282;52.514;13.458;2022-10-14T04:18:16;29.05;;;13.82;;
69769;SDS011;57282;52.514;13.458;2022-10-14T04:20:43;24.50;;;13.33;;
69769;SDS011;57282;52.514;13.458;2022-10-14T04:23:09;24.35;;;13.57;;
69769;SDS011;57282;52.514;13.458;2022-10-14T04:25:36;23.60;;;12.43;;
69769;SDS011;57282;52.514;13.458;2022-10-14T04:28:04;25.90;;;13.80;;
69769;SDS011;57282;52.514;13.458;2022-10-14T04:30:32;25.60;;;13.50;;
69769;SDS011;57282;52.514;13.458;2022-10-14T04:32:59;26.47;;;12.93;;
69769;SDS011;57282;52.514;13.458;2022-10-14T04:35:25;26.05;;;13.88;;
69769;SDS011;57282;52.514;13.458;2022-10-14T04:37:52;22.23;;;12.35;;
69769;SDS011;57282;52.514;13.458;2022-10-14T04:40:19;25.00;;;13.32;;
69769;SDS011;57282;52.514;13.458;2022-10-14T04:42:49;28.88;;;13.38;;
69769;SDS011;57282;52.514;13.458;2022-10-14T04:45:21;27.20;;;13.50;;
69769;SDS011;57282;52.514;13.458;2022-10-14T04:47:50;25.58;;;13.00;;
69769;SDS011;57282;52.514;13.458;2022-10-14T04:50:17;22.98;;;12.55;;
69769;SDS011;57282;52.514;13.458;2022-10-14T04:52:44;27.52;;;13.43;;
69769;SDS011;57282;52.514;13.458;2022-10-14T04:55:11;27.30;;;13.38;;
69769;SDS011;57282;52.514;13.458;2022-10-14T04:57:38;27.03;;;14.27;;
69769;SDS011;57282;52.514;13.458;2022-10-14T05:00:08;23.52;;;13.10;;
69769;SDS011;57282;52.514;13.458;2022-10-14T05:02:37;25.55;;;12.77;;
69769;SDS011;57282;52.514;13.458;2022-10-14T05:05:06;24.73;;;13.20;;
69769;SDS011;57282;52.514;13.458;2022-10-14T05:07:33;28.15;;;13.13;;
69769;SDS011;57282;52.514;13.458;2022-10-14T05:10:01;31.57;;;12.70;;
69769;SDS011;57282;52.514;13.458;2022-10-14T05:12:29;23.80;;;13.57;;
69769;SDS011;57282;52.514;13.458;2022-10-14T05:14:57;32.60;;;14.02;;
69769;SDS011;57282;52.514;13.458;2022-10-14T05:17:24;26.02;;;12.23;;
69769;SDS011;57282;52.514;13.458;2022-10-14T05:19:51;23.27;;;12.38;;
69769;SDS011;57282;52.514;13.458;2022-10-14T05:22:19;23.80;;;12.23;;
69769;SDS011;57282;52.514;13.458;2022-10-14T05:24:45;26.33;;;12.95;;
69769;SDS011;57282;52.514;13.458;2022-10-14T05:27:12;24.17;;;11.63;;
69769;SDS011;57282;52.514;13.458;2022-10-14T05:29:38;27.70;;;13.02;;
69769;SDS011;57282;52.514;13.458;2022-10-14T05:32:05;22.75;;;12.90;;
69769;SDS011;57282;52.514;13.458;2022-10-14T05:34:32;22.20;;;12.50;;
69769;SDS011;57282;52.514;13.458;2022-10-14T05:36:59;23.25;;;12.60;;
69769;SDS011;57282;52.514;13.458;2022-10-14T05:39:28;25.83;;;11.77;;
69769;SDS011;57282;52.514;13.458;2022-10-14T05:41:54;26.83;;;13.05;;
69769;SDS011;57282;52.514;13.458;2022-10-14T05:44:21;23.60;;;12.02;;
69769;SDS011;57282;52.514;13.458;2022-10-14T05:46:48;19.53;;;11.47;;
69769;SDS011;57282;52.514;13.458;2022-10-14T05:49:14;22.63;;;12.20;;
69769;SDS011;57282;52.514;13.458;2022-10-14T05:51:41;25.48;;;11.90;;
69769;SDS011;57282;52.514;13.458;2022-10-14T05:54:07;27.83;;;13.13;;
69769;SDS011;57282;52.514;13.458;2022-10-14T05:56:36;29.08;;;13.32;;
69769;SDS011;57282;52.514;13.458;2022-10-14T05:59:03;26.40;;;12.83;;
69769;SDS011;57282;52.514;13.458;2022-10-14T06:01:30;27.17;;;12.00;;
69769;SDS011;57282;52.514;13.458;2022-10-14T06:03:58;24.52;;;11.93;;
69769;SDS011;57282;52.514;13.458;2022-10-14T06:06:25;25.75;;;12.93;;
69769;SDS011;57282;52.514;13.458;2022-10-14T06:08:53;27.13;;;12.75;;
69769;SDS011;57282;52.514;13.458;2022-10-14T06:11:20;28.37;;;13.93;;
69769;SDS011;57282;52.514;13.458;2022-10-14T06:13:48;31.35;;;14.60;;
69769;SDS011;57282;52.514;13.458;2022-10-14T06:16:15;30.45;;;13.82;;
69769;SDS011;57282;52.514;13.458;2022-10-14T06:18:42;22.73;;;12.73;;
69769;SDS011;57282;52.514;13.458;2022-10-14T06:21:08;27.45;;;12.20;;
69769;SDS011;57282;52.514;13.458;2022-10-14T06:23:37;29.83;;;12.53;;
69769;SDS011;57282;52.514;13.458;2022-10-14T06:26:03;22.88;;;12.05;;
69769;SDS011;57282;52.514;13.458;2022-10-14T06:28:32;30.27;;;13.13;;
69769;SDS011;57282;52.514;13.458;2022-10-14T06:31:00;26.77;;;12.23;;
69769;SDS011;57282;52.514;13.458;2022-10-14T06:33:28;29.70;;;13.35;;
69769;SDS011;57282;52.514;13.458;2022-10-14T06:35:55;25.13;;;13.23;;
69769;SDS011;57282;52.514;13.458;2022-10-14T06:38:22;26.67;;;12.07;;
69769;SDS011;57282;52.514;13.458;2022-10-14T06:40:49;26.40;;;12.50;;
69769;SDS011;57282;52.514;13.458;2022-10-14T06:43:17;26.77;;;13.35;;
69769;SDS011;57282;52.514;13.458;2022-10-14T06:45:43;25.23;;;11.95;;
69769;SDS011;57282;52.514;13.458;2022-10-14T06:48:11;31.50;;;12.27;;
69769;SDS011;57282;52.514;13.458;2022-10-14T06:50:38;24.02;;;11.43;;
69769;SDS011;57282;52.514;13.458;2022-10-14T06:53:06;25.98;;;11.32;;
69769;SDS011;57282;52.514;13.458;2022-10-14T06:55:35;24.02;;;12.02;;
69769;SDS011;57282;52.514;13.458;2022-10-14T06:58:02;35.08;;;14.57;;
69769;SDS011;57282;52.514;13.458;2022-10-14T07:00:29;31.23;;;12.50;;
69769;SDS011;57282;52.514;13.458;2022-10-14T07:02:56;30.20;;;12.20;;
69769;SDS011;57282;52.514;13.458;2022-10-14T07:05:25;33.15;;;14.23;;
69769;SDS011;57282;52.514;13.458;2022-10-14T07:07:52;26.38;;;12.20;;
69769;SDS011;57282;52.514;13.458;2022-10-14T07:10:19;28.63;;;13.02;;
69769;SDS011;57282;52.514;13.458;2022-10-14T07:12:45;27.13;;;12.10;;
69769;SDS011;57282;52.514;13.458;2022-10-14T07:15:12;23.38;;;12.57;;
69769;SDS011;57282;52.514;13.458;2022-10-14T07:17:39;25.48;;;11.68;;
69769;SDS011;57282;52.514;13.458;2022-10-14T07:20:06;21.83;;;11.77;;
69769;SDS011;57282;52.514;13.458;2022-10-14T07:22:35;27.83;;;12.80;;
69769;SDS011;57282;52.514;13.458;2022-10-14T07:25:02;28.70;;;12.60;;
69769;SDS011;57282;52.514;13.458;2022-10-14T07:27:31;28.67;;;12.93;;
69769;SDS011;57282;52.514;13.458;2022-10-14T07:29:58;23.45;;;12.27;;
69769;SDS011;57282;52.514;13.458;2022-10-14T07:32:25;26.90;;;12.63;;
69769;SDS011;57282;52.514;13.458;2022-10-14T07:34:52;29.13;;;13.65;;
69769;SDS011;57282;52.514;13.458;2022-10-14T07:37:19;26.47;;;13.87;;
69769;SDS011;57282;52.514;13.458;2022-10-14T07:39:49;32.75;;;14.15;;
69769;SDS011;57282;52.514;13.458;2022-10-14T07:42:37;30.88;;;13.07;;
69769;SDS011;57282;52.514;13.458;2022-10-14T07:45:05;31.15;;;13.82;;
69769;SDS011;57282;52.514;13.458;2022-10-14T07:47:33;26.80;;;12.77;;
69769;SDS011;57282;52.514;13.458;2022-10-14T07:50:01;26.90;;;13.17;;
69769;SDS011;57282;52.514;13.458;2022-10-14T07:52:28;30.55;;;14.77;;
69769;SDS011;57282;52.514;13.458;2022-10-14T07:54:56;29.20;;;15.38;;
69769;SDS011;57282;52.514;13.458;2022-10-14T07:57:23;34.85;;;15.05;;
69769;SDS011;57282;52.514;13.458;2022-10-14T07:59:51;34.38;;;15.35;;
69769;SDS011;57282;52.514;13.458;2022-10-14T08:02:18;36.40;;;19.50;;
69769;SDS011;57282;52.514;13.458;2022-10-14T08:04:45;26.58;;;14.70;;
69769;SDS011;57282;52.514;13.458;2022-10-14T08:07:12;35.85;;;14.45;;
69769;SDS011;57282;52.514;13.458;2022-10-14T08:09:40;28.33;;;13.23;;
69769;SDS011;57282;52.514;13.458;2022-10-14T08:12:09;28.73;;;13.43;;
69769;SDS011;57282;52.514;13.458;2022-10-14T08:14:36;28.60;;;12.70;;
69769;SDS011;57282;52.514;13.458;2022-10-14T08:17:03;24.42;;;12.63;;
69769;SDS011;57282;52.514;13.458;2022-10-14T08:19:29;30.17;;;14.70;;
69769;SDS011;57282;52.514;13.458;2022-10-14T08:21:56;31.10;;;14.02;;
69769;SDS011;57282;52.514;13.458;2022-10-14T08:24:23;26.88;;;12.75;;
69769;SDS011;57282;52.514;13.458;2022-10-14T08:26:50;28.57;;;13.87;;
69769;SDS011;57282;52.514;13.458;2022-10-14T08:29:20;30.98;;;14.43;;
69769;SDS011;57282;52.514;13.458;2022-10-14T08:31:47;33.50;;;14.27;;
69769;SDS011;57282;52.514;13.458;2022-10-14T08:34:15;27.42;;;14.57;;
69769;SDS011;57282;52.514;13.458;2022-10-14T08:36:45;31.98;;;13.38;;
69769;SDS011;57282;52.514;13.458;2022-10-14T08:39:11;27.33;;;14.40;;
69769;SDS011;57282;52.514;13.458;2022-10-14T08:41:42;28.10;;;13.65;;
69769;SDS011;57282;52.514;13.458;2022-10-14T08:44:55;27.70;;;12.77;;
69769;SDS011;57282;52.514;13.458;2022-10-14T08:47:33;27.30;;;13.18;;
69769;SDS011;57282;52.514;13.458;2022-10-14T08:50:23;15.57;;;7.22;;
69769;SDS011;57282;52.514;13.458;2022-10-14T08:53:23;17.67;;;8.07;;
69769;SDS011;57282;52.514;13.458;2022-10-14T08:56:00;19.48;;;8.68;;
69769;SDS011;57282;52.514;13.458;2022-10-14T08:58:29;18.33;;;10.13;;
69769;SDS011;57282;52.514;13.458;2022-10-14T09:01:04;33.90;;;13.77;;
69769;SDS011;57282;52.514;13.458;2022-10-14T09:03:44;25.10;;;14.00;;
69769;SDS011;57282;52.514;13.458;2022-10-14T09:06:11;36.87;;;14.03;;
69769;SDS011;57282;52.514;13.458;2022-10-14T09:08:47;24.00;;;13.15;;
69769;SDS011;57282;52.514;13.458;2022-10-14T09:11:18;24.65;;;14.02;;
69769;SDS011;57282;52.514;13.458;2022-10-14T09:13:48;34.15;;;13.27;;
69769;SDS011;57282;52.514;13.458;2022-10-14T09:16:23;24.33;;;12.15;;
69769;SDS011;57282;52.514;13.458;2022-10-14T09:18:53;22.13;;;12.37;;
69769;SDS011;57282;52.514;13.458;2022-10-14T09:21:26;22.58;;;12.38;;
69769;SDS011;57282;52.514;13.458;2022-10-14T09:23:58;23.65;;;9.15;;
69769;SDS011;57282;52.514;13.458;2022-10-14T09:26:43;19.25;;;9.27;;
69769;SDS011;57282;52.514;13.458;2022-10-14T09:29:17;24.48;;;9.65;;
69769;SDS011;57282;52.514;13.458;2022-10-14T09:31:54;18.77;;;9.70;;
69769;SDS011;57282;52.514;13.458;2022-10-14T09:34:26;26.48;;;9.85;;
69769;SDS011;57282;52.514;13.458;2022-10-14T09:36:59;20.90;;;9.50;;
69769;SDS011;57282;52.514;13.458;2022-10-14T09:39:48;21.30;;;10.10;;
69769;SDS011;57282;52.514;13.458;2022-10-14T09:42:18;30.20;;;10.43;;
69769;SDS011;57282;52.514;13.458;2022-10-14T09:45:08;20.73;;;10.53;;
69769;SDS011;57282;52.514;13.458;2022-10-14T09:47:42;22.70;;;9.98;;
69769;SDS011;57282;52.514;13.458;2022-10-14T09:50:20;20.10;;;9.60;;
69769;SDS011;57282;52.514;13.458;2022-10-14T09:52:52;13.73;;;7.50;;
69769;SDS011;57282;52.514;13.458;2022-10-14T09:55:25;17.35;;;9.13;;
69769;SDS011;57282;52.514;13.458;2022-10-14T09:57:58;17.60;;;9.03;;
69769;SDS011;57282;52.514;13.458;2022-10-14T10:00:34;17.58;;;8.82;;
69769;SDS011;57282;52.514;13.458;2022-10-14T10:03:05;21.13;;;10.50;;
69769;SDS011;57282;52.514;13.458;2022-10-14T10:05:33;26.25;;;11.60;;
69769;SDS011;57282;52.514;13.458;2022-10-14T10:08:02;23.40;;;11.38;;
69769;SDS011;57282;52.514;13.458;2022-10-14T10:10:43;24.50;;;11.43;;
69769;SDS011;57282;52.514;13.458;2022-10-14T10:13:29;21.50;;;11.45;;
69769;SDS011;57282;52.514;13.458;2022-10-14T10:16:01;20.13;;;10.65;;
69769;SDS011;57282;52.514;13.458;2022-10-14T10:18:31;21.48;;;12.40;;
69769;SDS011;57282;52.514;13.458;2022-10-14T10:20:59;23.13;;;10.90;;
69769;SDS011;57282;52.514;13.458;2022-10-14T10:23:31;20.90;;;10.30;;
69769;SDS011;57282;52.514;13.458;2022-10-14T10:26:13;21.85;;;10.55;;
69769;SDS011;57282;52.514;13.458;2022-10-14T10:28:46;21.23;;;10.27;;
69769;SDS011;57282;52.514;13.458;2022-10-14T10:31:25;22.42;;;10.35;;
69769;SDS011;57282;52.514;13.458;2022-10-14T10:34:28;22.20;;;11.55;;
69769;SDS011;57282;52.514;13.458;2022-10-14T10:37:27;20.00;;;10.07;;
69769;SDS011;57282;52.514;13.458;2022-10-14T10:40:03;18.30;;;10.48;;
69769;SDS011;57282;52.514;13.458;2022-10-14T10:43:09;21.33;;;9.35;;
69769;SDS011;57282;52.514;13.458;2022-10-14T10:45:59;20.85;;;10.73;;
69769;SDS011;57282;52.514;13.458;2022-10-14T10:48:51;19.50;;;9.30;;
69769;SDS011;57282;52.514;13.458;2022-10-14T10:51:36;20.93;;;10.00;;
69769;SDS011;57282;52.514;13.458;2022-10-14T10:54:19;18.92;;;10.20;;
69769;SDS011;57282;52.514;13.458;2022-10-14T10:57:05;18.33;;;9.48;;
69769;SDS011;57282;52.514;13.458;2022-10-14T11:00:12;21.30;;;11.05;;
69769;SDS011;57282;52.514;13.458;2022-10-14T11:02:55;21.13;;;11.18;;
69769;SDS011;57282;52.514;13.458;2022-10-14T11:05:50;21.77;;;9.90;;
69769;SDS011;57282;52.514;13.458;2022-10-14T11:08:35;17.73;;;10.20;;
69769;SDS011;57282;52.514;13.458;2022-10-14T11:11:37;25.35;;;13.23;;
69769;SDS011;57282;52.514;13.458;2022-10-14T11:14:42;21.17;;;12.27;;
69769;SDS011;57282;52.514;13.458;2022-10-14T11:17:32;26.25;;;12.10;;
69769;SDS011;57282;52.514;13.458;2022-10-14T11:20:11;22.77;;;12.73;;
69769;SDS011;57282;52.514;13.458;2022-10-14T11:22:55;22.50;;;12.18;;
69769;SDS011;57282;52.514;13.458;2022-10-14T11:25:57;20.48;;;10.82;;
69769;SDS011;57282;52.514;13.458;2022-10-14T11:28:32;25.55;;;12.68;;
69769;SDS011;57282;52.514;13.458;2022-10-14T11:31:12;25.50;;;14.25;;
69769;SDS011;57282;52.514;13.458;2022-10-14T11:33:56;14.60;;;6.57;;
69769;SDS011;57282;52.514;13.458;2022-10-14T11:36:46;12.90;;;6.28;;
69769;SDS011;57282;52.514;13.458;2022-10-14T11:39:37;16.90;;;9.00;;
69769;SDS011;57282;52.514;13.458;2022-10-14T11:42:12;21.98;;;11.63;;
69769;SDS011;57282;52.514;13.458;2022-10-14T11:44:54;20.17;;;9.35;;
69769;SDS011;57282;52.514;13.458;2022-10-14T11:47:39;22.60;;;9.70;;
69769;SDS011;57282;52.514;13.458;2022-10-14T11:50:13;21.67;;;11.05;;
69769;SDS011;57282;52.514;13.458;2022-10-14T11:52:48;21.50;;;10.02;;
69769;SDS011;57282;52.514;13.458;2022-10-14T11:55:22;22.63;;;10.40;;
69769;SDS011;57282;52.514;13.458;2022-10-14T11:57:56;20.63;;;10.10;;
69769;SDS011;57282;52.514;13.458;2022-10-14T12:03:20;20.02;;;10.93;;
69769;SDS011;57282;52.514;13.458;2022-10-14T12:06:02;19.60;;;7.65;;
69769;SDS011;57282;52.514;13.458;2022-10-14T12:08:39;23.83;;;11.05;;
69769;SDS011;57282;52.514;13.458;2022-10-14T12:11:16;24.50;;;9.40;;
69769;SDS011;57282;52.514;13.458;2022-10-14T12:13:56;19.00;;;8.47;;
69769;SDS011;57282;52.514;13.458;2022-10-14T12:16:34;17.58;;;8.18;;
69769;SDS011;57282;52.514;13.458;2022-10-14T12:19:08;23.02;;;10.93;;
69769;SDS011;57282;52.514;13.458;2022-10-14T12:21:40;18.30;;;9.43;;
69769;SDS011;57282;52.514;13.458;2022-10-14T12:24:16;17.05;;;9.23;;
69769;SDS011;57282;52.514;13.458;2022-10-14T12:26:50;19.57;;;10.43;;
69769;SDS011;57282;52.514;13.458;2022-10-14T12:29:21;17.85;;;10.55;;
69769;SDS011;57282;52.514;13.458;2022-10-14T12:32:04;17.17;;;7.68;;
69769;SDS011;57282;52.514;13.458;2022-10-14T12:34:43;17.85;;;9.10;;
69769;SDS011;57282;52.514;13.458;2022-10-14T12:40:26;22.17;;;10.50;;
69769;SDS011;57282;52.514;13.458;2022-10-14T12:42:59;16.67;;;8.85;;
69769;SDS011;57282;52.514;13.458;2022-10-14T12:45:55;17.38;;;9.75;;
69769;SDS011;57282;52.514;13.458;2022-10-14T12:48:34;20.42;;;9.50;;
69769;SDS011;57282;52.514;13.458;2022-10-14T12:51:11;16.63;;;7.95;;
69769;SDS011;57282;52.514;13.458;2022-10-14T12:53:46;19.00;;;7.67;;
69769;SDS011;57282;52.514;13.458;2022-10-14T12:56:28;16.50;;;8.25;;
69769;SDS011;57282;52.514;13.458;2022-10-14T12:58:59;15.70;;;7.63;;
69769;SDS011;57282;52.514;13.458;2022-10-14T13:01:31;22.27;;;7.82;;
69769;SDS011;57282;52.514;13.458;2022-10-14T13:04:00;15.40;;;7.38;;
69769;SDS011;57282;52.514;13.458;2022-10-14T13:06:35;15.60;;;8.13;;
69769;SDS011;57282;52.514;13.458;2022-10-14T13:21:28;16.43;;;5.77;;
69769;SDS011;57282;52.514;13.458;2022-10-14T13:24:19;17.83;;;5.90;;
69769;SDS011;57282;52.514;13.458;2022-10-14T13:27:06;11.98;;;5.72;;
69769;SDS011;57282;52.514;13.458;2022-10-14T13:30:00;14.18;;;6.30;;
69769;SDS011;57282;52.514;13.458;2022-10-14T13:32:33;14.50;;;5.65;;
69769;SDS011;57282;52.514;13.458;2022-10-14T13:35:12;9.50;;;5.07;;
69769;SDS011;57282;52.514;13.458;2022-10-14T13:37:54;10.95;;;5.63;;
69769;SDS011;57282;52.514;13.458;2022-10-14T13:40:25;11.43;;;6.25;;
69769;SDS011;57282;52.514;13.458;2022-10-14T13:42:59;11.05;;;5.45;;
69769;SDS011;57282;52.514;13.458;2022-10-14T13:45:31;12.57;;;5.97;;
69769;SDS011;57282;52.514;13.458;2022-10-14T13:48:07;9.10;;;5.00;;
69769;SDS011;57282;52.514;13.458;2022-10-14T13:50:42;10.60;;;6.00;;
69769;SDS011;57282;52.514;13.458;2022-10-14T13:53:14;14.55;;;6.30;;
69769;SDS011;57282;52.514;13.458;2022-10-14T13:55:50;12.05;;;5.70;;
69769;SDS011;57282;52.514;13.458;2022-10-14T13:58:18;12.38;;;5.72;;
69769;SDS011;57282;52.514;13.458;2022-10-14T14:00:49;11.37;;;5.73;;
69769;SDS011;57282;52.514;13.458;2022-10-14T14:03:28;9.30;;;5.18;;
69769;SDS011;57282;52.514;13.458;2022-10-14T14:06:00;11.93;;;4.53;;
69769;SDS011;57282;52.514;13.458;2022-10-14T14:08:34;11.55;;;5.35;;
69769;SDS011;57282;52.514;13.458;2022-10-14T14:11:15;13.60;;;5.57;;
69769;SDS011;57282;52.514;13.458;2022-10-14T14:13:46;18.47;;;5.80;;
69769;SDS011;57282;52.514;13.458;2022-10-14T14:16:19;11.35;;;5.07;;
69769;SDS011;57282;52.514;13.458;2022-10-14T14:18:49;10.63;;;4.78;;
69769;SDS011;57282;52.514;13.458;2022-10-14T14:21:21;10.00;;;4.55;;
69769;SDS011;57282;52.514;13.458;2022-10-14T14:23:52;10.45;;;4.53;;
69769;SDS011;57282;52.514;13.458;2022-10-14T14:26:22;10.13;;;4.70;;
69769;SDS011;57282;52.514;13.458;2022-10-14T14:29:01;8.77;;;5.05;;
69769;SDS011;57282;52.514;13.458;2022-10-14T14:31:30;11.23;;;4.78;;
69769;SDS011;57282;52.514;13.458;2022-10-14T14:33:57;11.00;;;4.18;;
69769;SDS011;57282;52.514;13.458;2022-10-14T14:36:28;16.67;;;5.00;;
69769;SDS011;57282;52.514;13.458;2022-10-14T14:38:56;13.83;;;4.83;;
69769;SDS011;57282;52.514;13.458;2022-10-14T14:41:29;9.25;;;4.55;;
69769;SDS011;57282;52.514;13.458;2022-10-14T14:44:00;12.07;;;4.82;;
69769;SDS011;57282;52.514;13.458;2022-10-14T14:46:31;8.68;;;4.70;;
69769;SDS011;57282;52.514;13.458;2022-10-14T14:49:02;12.10;;;5.20;;
69769;SDS011;57282;52.514;13.458;2022-10-14T14:51:38;15.20;;;7.03;;
69769;SDS011;57282;52.514;13.458;2022-10-14T14:54:11;13.93;;;6.97;;
69769;SDS011;57282;52.514;13.458;2022-10-14T14:56:44;11.57;;;5.78;;
69769;SDS011;57282;52.514;13.458;2022-10-14T14:59:17;18.20;;;6.60;;
69769;SDS011;57282;52.514;13.458;2022-10-14T15:01:52;13.50;;;5.72;;
69769;SDS011;57282;52.514;13.458;2022-10-14T15:04:23;12.17;;;6.00;;
69769;SDS011;57282;52.514;13.458;2022-10-14T15:06:57;14.25;;;6.68;;